»·PEaware :: RRF98 KRNO-KBOI

RRF98 :: KRNO-KBOI

FLIGHT INFORMATION

Flight Status: Arrived
Operator: Unknown
More flights by this operator :: More flights under this callsign
Pilot: Matthew M. (8235)
Aircraft: BRITISH AERO BAe-146-100 STATESMAN
(B461)
More flights by this aircraft type
Origin: KRNO Reno/Tahoe Intl
United States
Destination: KBOI Boise Air Terminal/Gowen
United States
More flights between these airports :: More routes between these airports
Route: +ZEFFR6 BLKJK NEERO SADYL3
File this flight plan on PilotEdge
Remarks: KITTY
Altitude:
(Current/Filed)
29,000ft
Speed:
(Current/Filed)
360kts
Departed: 27-Apr-20 03:32 PM
Arrived: 27-Apr-20 04:36 PM
Distance/Time
Traveled:
292nm/1:04
Distance/Time
To Go:
Arrived

Flight Plot

Page will automatically refresh every two minutes.


Map Options




Map Legend


Flown Route
Filed Route
Departure Airport
Arrival Airport
Navaid (VOR, NDB)
Fix

Horizontal Profiles

Position Reports

Time Latitude Longitude Heading Altitude Ground
Speed
27-Apr-20 15:28 39.513552 -119.769830 89 4423ft 0kts
27-Apr-20 15:29 39.513552 -119.769826 89 4423ft 0kts
27-Apr-20 15:30 39.513299 -119.769220 181 4423ft 0kts
27-Apr-20 15:31 39.485739 -119.769356 181 4584ft 156kts
27-Apr-20 15:32 39.438526 -119.770236 178 5838ft 193kts
27-Apr-20 15:33 39.381630 -119.770210 179 7647ft 225kts
27-Apr-20 15:34 39.320491 -119.735237 133 9456ft 267kts
27-Apr-20 15:35 39.297121 -119.644987 74 11583ft 295kts
27-Apr-20 15:36 39.333931 -119.543974 55 13550ft 333kts
27-Apr-20 15:37 39.396279 -119.449299 40 15692ft 355kts
27-Apr-20 15:38 39.469785 -119.359272 37 17824ft 374kts
27-Apr-20 15:39 39.558162 -119.289014 18 19958ft 374kts
27-Apr-20 15:40 39.655248 -119.235563 16 21972ft 383kts
27-Apr-20 15:41 39.754572 -119.181331 16 23803ft 393kts
27-Apr-20 15:42 39.856498 -119.124963 16 25510ft 401kts
27-Apr-20 15:43 39.960544 -119.067375 15 26986ft 409kts
27-Apr-20 15:44 40.066421 -119.008586 15 28233ft 417kts
27-Apr-20 15:45 40.173850 -118.948173 15 29125ft 427kts
27-Apr-20 15:46 40.282512 -118.886641 15 29186ft 421kts
27-Apr-20 15:47 40.389234 -118.826595 14 29187ft 414kts
27-Apr-20 15:48 40.495027 -118.767243 14 29190ft 412kts
27-Apr-20 15:49 40.600993 -118.707666 14 29193ft 417kts
27-Apr-20 15:50 40.708139 -118.647014 14 29195ft 421kts
27-Apr-20 15:51 40.816220 -118.585771 14 29197ft 423kts
27-Apr-20 15:52 40.924601 -118.524062 14 29199ft 425kts
27-Apr-20 15:53 41.033448 -118.461806 14 29200ft 426kts
27-Apr-20 15:54 41.142532 -118.399253 14 29201ft 427kts
27-Apr-20 15:55 41.252003 -118.336256 14 29201ft 428kts
27-Apr-20 15:56 41.361339 -118.272886 14 29202ft 429kts
27-Apr-20 15:57 41.470517 -118.209017 14 29047ft 428kts
27-Apr-20 15:58 41.579289 -118.145039 14 28254ft 425kts
27-Apr-20 15:59 41.687201 -118.081615 14 27173ft 419kts
27-Apr-20 16:00 41.794895 -118.019334 12 25948ft 418kts
27-Apr-20 16:01 41.903210 -117.975938 4 25300ft 401kts
27-Apr-20 16:02 42.011376 -117.941578 4 24551ft 398kts
27-Apr-20 16:03 42.118360 -117.906427 4 23621ft 394kts
27-Apr-20 16:04 42.224146 -117.871236 5 22552ft 388kts
27-Apr-20 16:05 42.329809 -117.835593 5 22096ft 389kts
27-Apr-20 16:06 42.432630 -117.791208 25 21740ft 404kts
27-Apr-20 16:07 42.515014 -117.682874 43 21259ft 423kts
27-Apr-20 16:08 42.589485 -117.557598 45 21199ft 429kts
27-Apr-20 16:09 42.627113 -117.493781 45 21197ft 430kts
27-Apr-20 16:13 42.963939 -116.926288 45 18183ft 412kts
27-Apr-20 16:14 43.034075 -116.807133 46 16416ft 365kts
27-Apr-20 16:15 43.089288 -116.712053 45 13949ft 322kts
27-Apr-20 16:16 43.145921 -116.618085 46 12295ft 314kts
27-Apr-20 16:18 43.213924 -116.553011 17 10765ft 293kts
27-Apr-20 16:19 43.285878 -116.521177 12 9815ft 260kts
27-Apr-20 16:20 43.351030 -116.496731 13 7722ft 247kts
27-Apr-20 16:21 43.415848 -116.472766 14 7157ft 240kts
27-Apr-20 16:22 43.469144 -116.441896 58 6650ft 219kts
27-Apr-20 16:23 43.461819 -116.352197 107 6990ft 258kts
27-Apr-20 16:24 43.439250 -116.258430 108 6993ft 256kts
27-Apr-20 16:25 43.417840 -116.164896 108 6996ft 255kts
27-Apr-20 16:26 43.396607 -116.072425 108 6998ft 252kts
27-Apr-20 16:27 43.375532 -115.980865 108 6997ft 250kts
27-Apr-20 16:28 43.357290 -115.889066 84 6992ft 249kts
27-Apr-20 16:29 43.406509 -115.832072 6 6992ft 244kts
27-Apr-20 16:30 43.458183 -115.875545 310 6681ft 216kts
27-Apr-20 16:31 43.484682 -115.947862 293 6501ft 212kts
27-Apr-20 16:32 43.501724 -116.031057 276 6231ft 232kts
27-Apr-20 16:33 43.527305 -116.114189 299 4499ft 218kts
27-Apr-20 16:33 43.544990 -116.162621 299 3547ft 135kts
27-Apr-20 16:34 43.559634 -116.205961 297 2879ft 109kts
27-Apr-20 16:36 43.564224 -116.216316 1 2879ft 8kts
27-Apr-20 16:37 43.566535 -116.215604 267 2879ft 0kts
27-Apr-20 16:37 43.566535 -116.215604 267 2879ft 0kts
27-Apr-20 16:38 43.566535 -116.215604 267 2879ft 0kts

Navigation Log

Ident Type
Flight plan parsing failed, navigation log unavailable